createdAt,value
2018-03-15T06:39:18.088Z,3120
2018-03-15T06:40:02.816Z,3144
2018-03-15T06:40:47.537Z,3108
2018-03-15T06:41:32.266Z,3088
2018-03-15T06:42:16.988Z,3124
2018-03-15T06:43:01.695Z,3240
2018-03-15T06:43:46.397Z,3280
2018-03-15T06:44:31.104Z,3276
2018-03-15T06:45:15.835Z,3324
2018-03-15T06:46:00.562Z,3668
2018-03-15T06:46:45.316Z,3868
2018-03-15T06:47:30.066Z,3748
2018-03-15T06:48:14.779Z,3720
2018-03-15T06:48:59.483Z,3936
2018-03-15T06:49:44.224Z,4168
2018-03-15T06:50:28.909Z,4024
2018-03-15T06:51:13.637Z,4064
2018-03-15T06:51:58.371Z,4116
2018-03-15T06:52:43.072Z,4192
2018-03-15T06:53:27.775Z,4128
2018-03-15T06:54:12.481Z,4024
2018-03-15T06:54:57.221Z,4004
2018-03-15T06:55:41.964Z,4188
2018-03-15T06:56:26.664Z,4368
2018-03-15T06:57:11.398Z,4188
2018-03-15T06:57:56.208Z,4036
2018-03-15T06:58:40.943Z,4096
2018-03-15T06:59:25.675Z,4072
2018-03-15T07:00:10.387Z,4064
2018-03-15T07:00:55.137Z,4176
2018-03-15T07:01:39.863Z,4264
2018-03-15T07:02:24.572Z,4240
2018-03-15T07:03:09.274Z,3988
2018-03-15T07:03:53.982Z,3848
2018-03-15T07:04:38.689Z,3776
2018-03-15T07:05:23.397Z,3948
2018-03-15T07:06:08.172Z,4068
2018-03-15T07:06:52.916Z,3984
2018-03-15T07:07:37.655Z,3972
2018-03-15T07:08:22.362Z,4124
2018-03-15T07:09:07.089Z,4212
2018-03-15T07:09:51.795Z,4308
2018-03-15T07:10:36.531Z,4544
2018-03-15T07:11:21.277Z,4772
2018-03-15T07:12:05.988Z,4632
2018-03-15T07:12:50.691Z,4556
2018-03-15T07:13:35.396Z,4548
2018-03-15T07:14:20.104Z,4572
2018-03-15T07:15:04.835Z,4688
2018-03-15T07:15:49.563Z,4784
2018-03-15T07:16:34.308Z,4724
2018-03-15T07:17:18.995Z,4644
2018-03-15T07:18:03.923Z,4700
2018-03-15T07:18:48.632Z,4620
2018-03-15T07:19:33.339Z,4580
2018-03-15T07:20:18.118Z,4560
2018-03-15T07:21:02.827Z,4428
2018-03-15T07:21:47.533Z,4448
2018-03-15T07:22:32.262Z,4616
2018-03-15T07:23:16.966Z,4776
2018-03-15T07:24:01.676Z,4828
2018-03-15T07:24:46.379Z,4792
2018-03-15T07:25:31.133Z,4720
2018-03-15T07:26:15.838Z,4716
2018-03-15T07:27:00.551Z,4700
2018-03-15T07:27:45.278Z,4776
2018-03-15T07:28:29.988Z,5032
2018-03-15T07:29:14.696Z,5020
2018-03-15T07:29:59.418Z,4960
2018-03-15T07:30:44.127Z,4968
2018-03-15T07:31:28.886Z,5088
2018-03-15T07:32:13.615Z,5036
2018-03-15T07:32:58.350Z,5252
2018-03-15T07:33:43.055Z,5488
2018-03-15T07:34:27.778Z,5840
2018-03-15T07:35:12.492Z,6076
2018-03-15T07:35:57.192Z,5912
2018-03-15T07:36:41.951Z,5816
2018-03-15T07:37:26.678Z,5748
2018-03-15T07:38:11.440Z,5848
2018-03-15T07:38:56.191Z,5768
2018-03-15T07:39:40.924Z,5424
2018-03-15T07:40:25.632Z,5496
2018-03-15T07:41:10.411Z,5816
2018-03-15T07:41:55.142Z,5940
2018-03-15T07:42:39.845Z,6000
2018-03-15T07:43:24.554Z,6368
2018-03-15T07:44:09.281Z,6584
2018-03-15T07:44:53.992Z,6508
2018-03-15T07:45:38.695Z,6544
2018-03-15T07:46:23.404Z,6816
2018-03-15T07:47:08.159Z,6752
2018-03-15T07:47:52.889Z,6768
2018-03-15T07:48:37.577Z,6940
2018-03-15T07:49:22.286Z,6804
2018-03-15T07:50:07.016Z,6484
2018-03-15T07:50:51.762Z,6236
2018-03-15T07:51:36.500Z,6208
2018-03-15T07:52:21.223Z,6296
2018-03-15T07:53:05.930Z,6412
2018-03-15T07:53:50.634Z,6844
2018-03-15T07:54:35.393Z,7024
2018-03-15T07:55:20.131Z,7280
2018-03-15T07:56:04.870Z,7208
2018-03-15T07:56:49.579Z,7040
2018-03-15T07:57:34.401Z,7324
2018-03-15T07:58:19.097Z,7328
2018-03-15T07:59:03.853Z,7448
2018-03-15T07:59:48.575Z,7520
2018-03-15T08:00:33.321Z,7732
2018-03-15T08:01:18.068Z,7968
2018-03-15T08:02:02.823Z,7972
2018-03-15T08:02:47.504Z,7972
2018-03-15T08:03:32.211Z,7848
2018-03-15T08:04:16.968Z,7848
2018-03-15T08:05:01.703Z,8120
2018-03-15T08:05:46.456Z,8604
2018-03-15T08:06:31.173Z,8840
2018-03-15T08:07:15.936Z,8876
2018-03-15T08:08:00.601Z,9248
2018-03-15T08:08:45.362Z,9848
2018-03-15T08:09:30.117Z,10228
2018-03-15T08:10:14.886Z,10104
2018-03-15T08:10:59.649Z,10144
2018-03-15T08:11:44.413Z,9736
2018-03-15T08:12:29.131Z,9476
2018-03-15T08:13:13.839Z,9252
2018-03-15T08:13:58.617Z,8928
2018-03-15T08:14:43.397Z,9328
2018-03-15T08:15:28.127Z,9436
2018-03-15T08:16:12.832Z,9520
2018-03-15T08:16:57.560Z,9544
2018-03-15T08:17:42.276Z,9416
2018-03-15T08:18:27.024Z,9172
2018-03-15T08:19:11.731Z,9364
2018-03-15T08:19:56.464Z,9516
2018-03-15T08:20:41.171Z,9404
2018-03-15T08:21:25.882Z,9164
2018-03-15T08:22:10.608Z,8864
2018-03-15T08:22:55.316Z,8552
2018-03-15T08:23:40.017Z,8180
2018-03-15T08:24:24.775Z,7872
2018-03-15T08:25:09.493Z,7632
2018-03-15T08:25:54.221Z,7424
2018-03-15T08:26:38.961Z,7140
2018-03-15T08:27:23.676Z,6868
2018-03-15T08:28:08.412Z,6748
2018-03-15T08:28:53.141Z,6684
2018-03-15T08:29:37.873Z,6672
2018-03-15T08:30:22.635Z,6772
2018-03-15T08:31:07.371Z,6612
2018-03-15T08:31:52.124Z,6180
2018-03-15T08:32:36.866Z,5880
2018-03-15T08:33:21.661Z,5748
2018-03-15T08:34:06.367Z,5784
2018-03-15T08:34:51.150Z,5852
2018-03-15T08:35:35.894Z,5780
2018-03-15T08:36:20.597Z,5764
2018-03-15T08:37:05.350Z,6000
2018-03-15T08:37:50.057Z,6820
2018-03-15T08:38:34.767Z,7540
2018-03-15T08:39:19.513Z,8056
2018-03-15T08:40:04.252Z,8252
2018-03-15T08:40:48.983Z,8040
2018-03-15T08:41:33.748Z,8112
2018-03-15T08:42:18.477Z,8744
2018-03-15T08:43:03.182Z,8500
2018-03-15T08:43:47.888Z,7488
2018-03-15T08:44:32.596Z,7984
2018-03-15T08:45:17.329Z,6660
2018-03-15T08:46:02.007Z,6404
2018-03-15T08:46:46.714Z,8364
2018-03-15T08:47:31.442Z,8644
2018-03-15T08:48:16.177Z,8376
2018-03-15T08:49:00.940Z,7148
2018-03-15T08:49:45.652Z,6748
2018-03-15T08:50:30.359Z,7456
2018-03-15T08:51:15.067Z,6900
2018-03-15T08:51:59.850Z,6960
2018-03-15T08:52:44.572Z,6544
2018-03-15T08:53:29.280Z,3524
2018-03-15T08:54:13.989Z,2820
2018-03-15T08:54:58.690Z,2968
2018-03-15T08:55:43.403Z,3268
2018-03-15T08:56:28.134Z,3456
2018-03-15T08:57:12.845Z,4092
2018-03-15T08:57:57.565Z,4832
2018-03-15T08:58:42.277Z,5096
2018-03-15T08:59:27.037Z,5024
2018-03-15T09:00:11.786Z,4760
2018-03-15T09:00:56.448Z,4836
2018-03-15T09:01:41.154Z,5720
2018-03-15T09:02:25.883Z,7876
2018-03-15T09:03:10.591Z,8236
2018-03-15T09:03:55.327Z,7624
2018-03-15T09:04:40.593Z,7620
2018-03-15T09:05:24.806Z,6644
2018-03-15T09:06:09.515Z,6312
2018-03-15T09:06:54.267Z,6572
2018-03-15T09:07:38.972Z,6548
2018-03-15T09:08:23.665Z,6176
2018-03-15T09:09:08.403Z,5628
2018-03-15T09:09:53.115Z,5228
2018-03-15T09:10:37.840Z,5232
2018-03-15T09:11:22.570Z,5628
2018-03-15T09:12:07.282Z,5852
2018-03-15T09:12:51.980Z,6092
2018-03-15T09:13:36.716Z,6180
2018-03-15T09:14:21.459Z,6072
2018-03-15T09:15:06.163Z,5320
2018-03-15T09:15:50.871Z,4904
2018-03-15T09:16:35.804Z,5712
2018-03-15T09:17:20.516Z,6012
2018-03-15T09:18:05.243Z,4844
2018-03-15T09:18:50.027Z,4176
2018-03-15T09:19:34.731Z,4400
2018-03-15T09:20:19.481Z,5552
2018-03-15T09:21:04.220Z,7112
2018-03-15T09:21:48.928Z,6236
2018-03-15T09:22:33.634Z,6236
2018-03-15T09:23:18.366Z,6120
2018-03-15T09:24:03.100Z,5956
2018-03-15T09:24:47.809Z,5764
2018-03-15T09:25:32.534Z,6028
2018-03-15T09:26:17.246Z,6656
2018-03-15T09:27:02.004Z,7096
2018-03-15T09:27:46.703Z,7132
2018-03-15T09:28:31.442Z,7900
2018-03-15T09:29:16.171Z,10068
2018-03-15T09:30:00.877Z,9464
2018-03-15T09:30:45.634Z,7180
2018-03-15T09:31:30.353Z,6460
2018-03-15T09:32:15.067Z,6880
2018-03-15T09:32:59.768Z,8752
2018-03-15T09:33:44.480Z,12624
2018-03-15T09:34:29.221Z,13332
2018-03-15T09:35:13.911Z,11404
2018-03-15T09:35:58.615Z,11148
2018-03-15T09:36:43.333Z,8080
2018-03-15T09:37:28.045Z,7068
2018-03-15T09:38:12.801Z,6888
2018-03-15T09:38:57.472Z,6728
2018-03-15T09:39:42.162Z,6836
2018-03-15T09:40:26.878Z,7544
2018-03-15T09:41:11.576Z,8672
2018-03-15T09:41:56.289Z,9132
2018-03-15T09:42:41.004Z,9912
2018-03-15T09:43:25.711Z,10616
2018-03-15T09:44:10.421Z,8880
2018-03-15T09:44:55.148Z,7548
2018-03-15T09:45:39.912Z,7008
2018-03-15T09:46:24.618Z,6784
2018-03-15T09:47:09.377Z,7028
2018-03-15T09:47:54.100Z,7872
2018-03-15T09:48:38.826Z,11192
2018-03-15T09:49:23.528Z,13632
2018-03-15T09:50:08.268Z,12388
2018-03-15T09:50:53.028Z,14712
2018-03-15T09:51:37.788Z,16448
2018-03-15T09:52:22.535Z,14900
2018-03-15T09:53:07.235Z,13180
2018-03-15T09:53:51.969Z,8496
2018-03-15T09:54:36.743Z,7456
2018-03-15T09:55:21.493Z,9780
2018-03-15T09:56:06.222Z,9824
2018-03-15T09:56:50.993Z,9336
2018-03-15T09:57:35.701Z,8060
2018-03-15T09:58:20.513Z,7448
2018-03-15T09:59:05.239Z,8616
2018-03-15T09:59:49.949Z,9176
2018-03-15T10:00:34.787Z,8300
2018-03-15T10:01:19.441Z,8276
2018-03-15T10:02:04.161Z,8492
2018-03-15T10:02:48.868Z,8380
2018-03-15T10:03:33.662Z,8128
2018-03-15T10:04:18.370Z,8096
2018-03-15T10:05:03.090Z,8500
2018-03-15T10:05:47.864Z,8936
2018-03-15T10:06:32.543Z,9384
2018-03-15T10:07:17.283Z,10256
2018-03-15T10:08:02.037Z,11024
2018-03-15T10:09:46.295Z,10204
2018-03-15T10:10:31.073Z,10080
2018-03-15T10:11:15.796Z,10380
2018-03-15T10:12:00.506Z,10732
2018-03-15T10:12:45.344Z,11044
2018-03-15T10:13:30.086Z,11148
2018-03-15T10:14:14.787Z,12200
2018-03-15T10:14:59.497Z,11016
2018-03-15T10:15:44.295Z,10052
2018-03-15T10:16:29.076Z,9508
2018-03-15T10:17:13.860Z,9984
2018-03-15T10:17:58.592Z,10612
2018-03-15T10:18:43.297Z,9480
2018-03-15T10:19:28.003Z,7344
2018-03-15T10:20:12.720Z,6296
2018-03-15T10:20:57.450Z,6832
2018-03-15T10:21:42.187Z,7432
2018-03-15T10:22:26.902Z,7796
2018-03-15T10:23:11.671Z,8012
2018-03-15T10:23:56.378Z,8284
2018-03-15T10:24:41.085Z,8880
2018-03-15T10:25:26.390Z,9644
2018-03-15T10:26:10.562Z,10308
2018-03-15T10:26:55.325Z,10192
2018-03-15T10:27:40.034Z,10124
2018-03-15T10:28:24.763Z,10368
2018-03-15T10:29:09.471Z,10684
2018-03-15T10:29:54.229Z,10160
2018-03-15T10:30:38.909Z,10316
2018-03-15T10:31:23.619Z,10660
2018-03-15T10:32:08.332Z,11216
2018-03-15T10:32:53.052Z,11300
2018-03-15T10:33:37.769Z,11928
2018-03-15T10:34:22.471Z,11804
2018-03-15T10:35:07.202Z,10840
2018-03-15T10:35:51.919Z,9672
2018-03-15T10:36:36.626Z,8852
2018-03-15T10:37:21.436Z,8296
2018-03-15T10:38:06.160Z,8012
2018-03-15T10:38:50.876Z,7888
2018-03-15T10:39:35.593Z,7940
2018-03-15T10:40:20.370Z,8196
2018-03-15T10:41:05.087Z,8284
2018-03-15T10:41:49.799Z,8756
2018-03-15T10:42:34.529Z,8780
2018-03-15T10:43:19.232Z,9232
2018-03-15T10:44:03.942Z,10156
2018-03-15T10:44:48.656Z,10832
2018-03-15T10:45:33.379Z,10732
2018-03-15T10:46:18.147Z,10232
2018-03-15T10:47:02.866Z,9748
2018-03-15T10:47:47.588Z,10332
2018-03-15T10:48:32.302Z,10312
2018-03-15T10:49:17.020Z,9524
2018-03-15T10:50:01.743Z,9508
2018-03-15T10:50:46.453Z,10408
2018-03-15T10:51:31.165Z,10904
2018-03-15T10:52:15.884Z,11188
2018-03-15T10:53:00.599Z,11204
2018-03-15T10:53:45.354Z,10504
2018-03-15T10:54:30.114Z,10192
2018-03-15T10:55:14.834Z,10664
2018-03-15T10:55:59.547Z,10928
2018-03-15T10:56:44.261Z,11136
2018-03-15T10:57:28.980Z,11668
2018-03-15T10:58:13.691Z,11376
2018-03-15T10:58:58.406Z,11060
2018-03-15T10:59:43.181Z,9640
2018-03-15T11:00:27.888Z,8060
2018-03-15T11:01:12.597Z,7756
2018-03-15T11:01:57.310Z,7588
2018-03-15T11:02:42.042Z,7088
2018-03-15T11:03:26.747Z,7448
2018-03-15T11:04:11.461Z,7904
2018-03-15T11:04:56.185Z,8268
2018-03-15T11:05:40.894Z,8212
2018-03-15T11:06:25.600Z,8436
2018-03-15T11:07:10.353Z,9236
2018-03-15T11:07:55.068Z,10220
2018-03-15T11:08:39.788Z,10452
2018-03-15T11:09:24.501Z,10992
2018-03-15T11:10:09.259Z,10832
2018-03-15T11:10:53.978Z,9400
2018-03-15T11:11:38.695Z,8564
2018-03-15T11:12:23.403Z,7772
2018-03-15T11:13:08.104Z,7728
2018-03-15T11:13:52.819Z,8276
2018-03-15T11:14:37.544Z,9252
2018-03-15T11:15:22.266Z,10336
2018-03-15T11:16:06.973Z,10012
2018-03-15T11:16:51.694Z,9172
2018-03-15T11:17:36.400Z,7640
2018-03-15T11:18:21.112Z,6276
2018-03-15T11:19:05.833Z,5948
2018-03-15T11:19:50.545Z,4948
2018-03-15T11:20:35.270Z,4452
2018-03-15T11:21:19.979Z,4424
2018-03-15T11:22:04.692Z,4152
2018-03-15T11:22:49.414Z,4056
2018-03-15T11:23:34.116Z,3992
2018-03-15T11:24:18.827Z,4104
2018-03-15T11:25:03.552Z,4760
2018-03-15T11:25:48.261Z,4908
2018-03-15T11:26:32.971Z,5196
2018-03-15T11:27:17.679Z,5656
2018-03-15T11:28:02.385Z,5900
2018-03-15T11:28:47.096Z,5876
2018-03-15T11:29:31.800Z,5696
2018-03-15T11:30:16.512Z,5240
2018-03-15T11:31:01.279Z,4984
2018-03-15T11:31:46.454Z,4856
2018-03-15T11:32:31.120Z,4844
2018-03-15T11:33:15.821Z,4736
2018-03-15T11:34:00.527Z,4588
2018-03-15T11:34:45.244Z,4532
2018-03-15T11:35:29.927Z,3996
2018-03-15T11:36:14.638Z,3832
2018-03-15T11:36:59.372Z,3688
2018-03-15T11:37:44.072Z,3560
2018-03-15T11:38:28.790Z,3444
2018-03-15T11:39:13.710Z,3592
2018-03-15T11:39:58.408Z,3548
2018-03-15T11:40:43.146Z,3604
2018-03-15T11:41:27.904Z,3672
2018-03-15T11:42:12.646Z,3728
2018-03-15T11:42:57.376Z,3516
2018-03-15T11:43:42.171Z,3588
2018-03-15T11:44:26.856Z,3692
2018-03-15T11:45:11.566Z,3812
2018-03-15T11:45:56.285Z,4276
2018-03-15T11:46:40.989Z,4308
2018-03-15T11:47:25.700Z,4208
2018-03-15T11:48:10.422Z,4124
2018-03-15T11:48:55.124Z,4036
2018-03-15T11:49:39.833Z,3940
2018-03-15T11:50:24.570Z,3892
2018-03-15T11:51:09.332Z,3864
2018-03-15T11:51:54.056Z,3848
2018-03-15T11:52:38.789Z,3732
2018-03-15T11:53:23.695Z,3936
2018-03-15T11:54:08.401Z,4088
2018-03-15T11:54:53.110Z,4216
2018-03-15T11:55:37.880Z,4284
2018-03-15T11:56:22.599Z,4252
2018-03-15T11:57:07.303Z,4264
2018-03-15T11:57:52.061Z,4400
2018-03-15T11:58:36.764Z,4236
2018-03-15T11:59:21.473Z,4480
2018-03-15T12:00:06.225Z,5124
2018-03-15T12:00:50.929Z,5016
2018-03-15T12:01:35.678Z,4756
2018-03-15T12:02:20.359Z,4488
2018-03-15T12:03:05.075Z,4332
2018-03-15T12:03:49.793Z,4248
2018-03-15T12:04:34.518Z,4132
2018-03-15T12:05:19.225Z,4032
2018-03-15T12:06:03.944Z,3944
2018-03-15T12:06:48.667Z,3880
2018-03-15T12:07:33.442Z,3816
2018-03-15T12:08:18.254Z,3796
2018-03-15T12:09:02.947Z,3812
2018-03-15T12:09:47.654Z,3788
2018-03-15T12:10:32.359Z,3768
2018-03-15T12:11:17.071Z,3728
2018-03-15T12:12:01.824Z,3708
2018-03-15T12:12:46.577Z,3664
2018-03-15T12:13:31.368Z,3608
2018-03-15T12:14:16.085Z,3608
2018-03-15T12:15:00.792Z,3588
2018-03-15T12:15:45.496Z,3608
2018-03-15T12:16:30.189Z,3648
2018-03-15T12:17:14.935Z,3668
2018-03-15T12:17:59.622Z,3668
2018-03-15T12:18:44.328Z,3680
2018-03-15T12:19:29.058Z,3700
2018-03-15T12:20:13.766Z,3704
2018-03-15T12:20:58.474Z,3700
2018-03-15T12:21:43.203Z,3684
2018-03-15T12:22:27.910Z,3672
2018-03-15T12:23:12.615Z,3656
2018-03-15T12:23:57.323Z,3712
2018-03-15T12:24:42.127Z,3720
2018-03-15T12:25:26.822Z,3744
2018-03-15T12:26:11.534Z,3740
2018-03-15T12:26:56.261Z,3732
2018-03-15T12:27:40.991Z,3736
2018-03-15T12:28:25.725Z,4028
2018-03-15T12:29:10.425Z,4424
2018-03-15T12:29:55.199Z,4144
2018-03-15T12:30:39.951Z,3980
2018-03-15T12:31:24.664Z,3936
2018-03-15T12:32:09.398Z,3900
2018-03-15T12:32:54.131Z,3860
2018-03-15T12:33:38.855Z,3852
2018-03-15T12:34:23.563Z,3860
2018-03-15T12:35:08.332Z,3836
2018-03-15T12:35:53.028Z,3788
2018-03-15T12:36:37.811Z,3792
2018-03-15T12:37:22.519Z,3904
2018-03-15T12:38:07.300Z,3780
2018-03-15T12:38:52.011Z,3728
2018-03-15T12:39:36.719Z,3624
2018-03-15T12:40:21.445Z,3752
2018-03-15T12:41:06.151Z,3772
2018-03-15T12:41:50.888Z,3664
2018-03-15T12:42:35.600Z,3732
2018-03-15T12:43:20.300Z,3904
2018-03-15T12:44:05.005Z,4120
2018-03-15T12:44:49.711Z,4196
2018-03-15T12:45:34.420Z,4344
2018-03-15T12:46:19.178Z,4628
2018-03-15T12:47:03.919Z,4868
2018-03-15T12:47:48.629Z,4864
2018-03-15T12:48:33.343Z,4668
2018-03-15T12:49:18.144Z,4440
2018-03-15T12:50:02.857Z,4264
2018-03-15T12:50:47.574Z,4096
2018-03-15T12:51:32.274Z,3988
2018-03-15T12:52:16.988Z,3940
2018-03-15T12:53:01.753Z,3936
2018-03-15T12:53:46.474Z,3964
2018-03-15T12:54:31.199Z,4000
2018-03-15T12:55:15.954Z,4012
2018-03-15T12:56:00.663Z,3988
2018-03-15T12:56:45.366Z,3940
2018-03-15T12:57:30.121Z,3916
2018-03-15T12:58:14.799Z,3904
2018-03-15T12:58:59.509Z,3884
2018-03-15T12:59:44.219Z,3872
2018-03-15T13:00:28.964Z,3864
2018-03-15T13:01:13.657Z,3840
2018-03-15T13:01:58.409Z,3808
2018-03-15T13:02:43.396Z,3812
2018-03-15T13:03:28.106Z,3820
2018-03-15T13:04:12.814Z,3740
2018-03-15T13:04:57.528Z,3792
2018-03-15T13:05:42.270Z,3864
2018-03-15T13:06:26.970Z,3808
2018-03-15T13:07:11.774Z,3780
2018-03-15T13:07:56.480Z,3852
2018-03-15T13:08:41.211Z,4012
2018-03-15T13:09:25.989Z,4184
2018-03-15T13:10:10.693Z,4308
2018-03-15T13:10:55.406Z,4392
2018-03-15T13:11:40.166Z,4420
2018-03-15T13:12:25.091Z,4408
2018-03-15T13:13:09.823Z,4368
2018-03-15T13:13:54.505Z,4336
2018-03-15T13:14:39.237Z,4360
2018-03-15T13:15:23.944Z,4440
2018-03-15T13:16:08.652Z,4496
2018-03-15T13:16:53.441Z,4556
2018-03-15T13:17:38.164Z,4564
2018-03-15T13:18:22.875Z,4636
2018-03-15T13:19:07.602Z,4740
2018-03-15T13:19:52.312Z,4844
2018-03-15T13:20:37.023Z,4892
2018-03-15T13:21:21.753Z,4960
2018-03-15T13:22:06.491Z,5040
2018-03-15T13:22:51.207Z,5112
2018-03-15T13:23:35.938Z,5196
2018-03-15T13:24:20.649Z,5248
2018-03-15T13:25:05.372Z,5288
2018-03-15T13:25:50.104Z,5308
2018-03-15T13:26:34.811Z,5284
2018-03-15T13:27:19.581Z,5224
2018-03-15T13:28:04.302Z,5196
2018-03-15T13:28:49.038Z,5188
2018-03-15T13:29:33.765Z,5228
2018-03-15T13:30:18.567Z,5296
2018-03-15T13:31:03.235Z,5336
2018-03-15T13:31:47.985Z,5316
2018-03-15T13:32:32.690Z,5288
2018-03-15T13:33:17.399Z,5200
2018-03-15T13:34:02.107Z,5104
2018-03-15T13:34:46.839Z,5040
2018-03-15T13:35:31.556Z,5012
2018-03-15T13:36:16.256Z,5028
2018-03-15T13:37:00.987Z,5132
2018-03-15T13:37:45.693Z,5200
2018-03-15T13:38:30.400Z,5168
2018-03-15T13:39:15.185Z,5092
2018-03-15T13:39:59.832Z,5036
2018-03-15T13:40:44.542Z,5004
2018-03-15T13:41:29.250Z,4968
2018-03-15T13:42:14.286Z,5000
2018-03-15T13:42:58.991Z,4936
2018-03-15T13:43:43.695Z,4892
2018-03-15T13:44:28.409Z,4788
2018-03-15T13:45:13.116Z,4868
2018-03-15T13:45:57.826Z,4740
2018-03-15T13:46:42.556Z,4780
2018-03-15T13:47:27.365Z,4720
2018-03-15T13:48:12.086Z,4640
2018-03-15T13:48:56.820Z,4576
2018-03-15T13:49:41.563Z,4508
2018-03-15T13:50:26.276Z,4480
2018-03-15T13:51:11.012Z,4532
2018-03-15T13:51:55.784Z,4584
2018-03-15T13:52:40.488Z,4608
2018-03-15T13:53:25.251Z,4596
2018-03-15T13:54:09.982Z,4588
2018-03-15T13:54:54.689Z,4604
2018-03-15T13:55:39.398Z,4668
2018-03-15T13:56:24.132Z,5016
2018-03-15T13:57:08.910Z,5388
2018-03-15T13:57:53.618Z,5920
2018-03-15T13:58:38.404Z,6212
2018-03-15T13:59:23.105Z,5948
2018-03-15T14:00:07.814Z,5440
2018-03-15T14:00:52.586Z,5084
2018-03-15T14:01:37.295Z,4856
2018-03-15T14:02:22.027Z,4592
2018-03-15T14:03:06.867Z,4456
2018-03-15T14:03:51.588Z,4340
2018-03-15T14:04:36.296Z,4288
2018-03-15T14:05:21.007Z,4268
2018-03-15T14:06:05.733Z,4272
2018-03-15T14:06:50.446Z,4264
2018-03-15T14:07:35.188Z,4248
2018-03-15T14:08:19.883Z,4208
2018-03-15T14:09:04.594Z,4180
2018-03-15T14:09:49.303Z,4152
2018-03-15T14:10:34.080Z,4140
2018-03-15T14:11:18.789Z,4120
2018-03-15T14:12:03.500Z,4088
2018-03-15T14:12:48.231Z,4096
2018-03-15T14:13:32.942Z,4112
2018-03-15T14:14:17.646Z,4148
2018-03-15T14:15:02.355Z,4172
2018-03-15T14:15:47.114Z,4200
2018-03-15T14:16:31.846Z,4220
2018-03-15T14:17:16.555Z,4260
2018-03-15T14:18:01.268Z,4284
2018-03-15T14:18:45.994Z,4308
2018-03-15T14:19:30.710Z,4328
2018-03-15T14:20:15.436Z,4348
2018-03-15T14:21:00.167Z,4352
2018-03-15T14:21:44.881Z,4328
2018-03-15T14:22:29.681Z,4308
2018-03-15T14:23:14.434Z,4288
2018-03-15T14:23:59.120Z,4256
2018-03-15T14:24:43.825Z,4248
2018-03-15T14:25:28.533Z,4284
2018-03-15T14:26:13.259Z,4388
2018-03-15T14:26:57.973Z,4544
2018-03-15T14:27:42.682Z,4748
2018-03-15T14:28:27.390Z,5004
2018-03-15T14:29:12.100Z,5308
2018-03-15T14:29:56.807Z,5552
2018-03-15T14:30:41.730Z,5744
2018-03-15T14:31:26.417Z,6072
2018-03-15T14:32:11.152Z,6496
2018-03-15T14:32:55.834Z,7072
2018-03-15T14:33:40.567Z,7708
2018-03-15T14:34:25.321Z,8052
2018-03-15T14:35:10.028Z,8248
2018-03-15T14:35:54.736Z,8204
2018-03-15T14:36:39.446Z,8080
2018-03-15T14:37:24.186Z,7648
2018-03-15T14:38:08.911Z,7272
2018-03-15T14:38:53.626Z,7132
2018-03-15T14:39:38.369Z,7092
2018-03-15T14:40:23.064Z,7080
2018-03-15T14:41:07.788Z,7060
2018-03-15T14:41:52.536Z,6940
2018-03-15T14:42:37.302Z,6852
2018-03-15T14:43:22.009Z,6752
2018-03-15T14:44:06.801Z,6804
2018-03-15T14:44:51.586Z,7012
2018-03-15T14:45:36.263Z,7232
2018-03-15T14:46:21.026Z,7336
2018-03-15T14:47:05.774Z,7324
2018-03-15T14:47:50.499Z,7396
2018-03-15T14:48:35.299Z,7272
2018-03-15T14:49:20.031Z,6888
2018-03-15T14:50:04.735Z,6492
2018-03-15T14:50:49.460Z,6408
2018-03-15T14:51:34.221Z,6464
2018-03-15T14:52:18.954Z,6500
2018-03-15T14:53:03.708Z,6456
2018-03-15T14:53:48.523Z,6252
2018-03-15T14:54:33.278Z,6040
2018-03-15T14:55:17.979Z,5844
2018-03-15T14:56:02.917Z,5744
2018-03-15T14:56:47.634Z,5832
2018-03-15T14:57:32.422Z,6180
2018-03-15T14:58:17.167Z,6512
2018-03-15T14:59:01.903Z,6620
2018-03-15T14:59:46.671Z,6592
2018-03-15T15:00:31.496Z,6368
2018-03-15T15:01:16.233Z,6256
2018-03-15T15:02:00.942Z,6324
2018-03-15T15:02:45.648Z,6340
2018-03-15T15:03:30.430Z,6340
2018-03-15T15:04:15.162Z,6348
2018-03-15T15:04:59.921Z,6344
2018-03-15T15:05:44.650Z,6364
2018-03-15T15:06:29.362Z,6432
2018-03-15T15:07:14.071Z,6480
2018-03-15T15:07:58.799Z,6460
2018-03-15T15:08:43.513Z,6396
2018-03-15T15:09:28.219Z,6292
2018-03-15T15:10:12.956Z,6164
2018-03-15T15:10:57.693Z,5992
2018-03-15T15:11:42.405Z,5892
2018-03-15T15:12:27.147Z,5920
2018-03-15T15:13:11.927Z,6020
2018-03-15T15:13:56.631Z,5948
2018-03-15T15:14:41.413Z,5832
2018-03-15T15:15:26.119Z,5820
2018-03-15T15:16:10.824Z,5872
2018-03-15T15:16:55.535Z,5836
2018-03-15T15:17:40.268Z,5652
2018-03-15T15:18:24.978Z,5484
2018-03-15T15:19:09.681Z,5388
2018-03-15T15:19:54.400Z,5224
2018-03-15T15:20:39.173Z,5248
2018-03-15T15:21:23.880Z,5204
2018-03-15T15:22:08.590Z,5084
2018-03-15T15:22:53.326Z,4928
2018-03-15T15:23:38.037Z,4852
2018-03-15T15:24:22.736Z,4880
2018-03-15T15:25:07.501Z,4820
2018-03-15T15:25:52.211Z,4796
2018-03-15T15:26:36.921Z,4872
2018-03-15T15:27:21.700Z,4996
2018-03-15T15:28:06.404Z,5044
2018-03-15T15:28:51.129Z,4992
2018-03-15T15:29:35.891Z,4928
2018-03-15T15:30:20.815Z,4908
2018-03-15T15:31:05.537Z,4840
2018-03-15T15:31:50.281Z,4744
2018-03-15T15:32:35.017Z,4528
2018-03-15T15:33:19.744Z,4364
2018-03-15T15:34:04.449Z,4304
2018-03-15T15:34:49.161Z,4236
2018-03-15T15:35:33.892Z,4212
2018-03-15T15:36:18.603Z,4248
2018-03-15T15:37:03.315Z,4240
2018-03-15T15:37:48.022Z,4176
2018-03-15T15:38:32.795Z,4176
2018-03-15T15:39:17.560Z,4180
2018-03-15T15:40:02.293Z,4036
2018-03-15T15:40:47.002Z,3796
2018-03-15T15:41:31.715Z,3544
2018-03-15T15:42:16.500Z,3324
2018-03-15T15:43:01.224Z,3160
2018-03-15T15:43:45.984Z,3004
2018-03-15T15:44:30.770Z,2860
2018-03-15T15:45:15.492Z,2776
2018-03-15T15:46:00.251Z,2668
2018-03-15T15:46:45.047Z,2628
2018-03-15T15:47:29.808Z,2536
2018-03-15T15:48:14.560Z,2440
2018-03-15T15:48:59.284Z,2368
2018-03-15T15:49:44.008Z,2280
2018-03-15T15:50:28.721Z,2204
2018-03-15T15:51:13.426Z,2124
2018-03-15T15:51:58.137Z,2072
2018-03-15T15:52:43.060Z,2024
2018-03-15T15:53:27.772Z,1984
2018-03-15T15:54:12.552Z,1928
2018-03-15T15:54:57.253Z,1916
2018-03-15T15:55:41.964Z,1912
2018-03-15T15:56:26.667Z,1864
2018-03-15T15:57:11.374Z,1800
2018-03-15T15:57:56.104Z,1748
2018-03-15T15:58:40.812Z,1716
2018-03-15T15:59:25.552Z,1696
2018-03-15T16:00:10.289Z,1664
2018-03-15T16:00:54.997Z,1660
2018-03-15T16:01:39.703Z,1648
2018-03-15T16:02:24.410Z,1616
2018-03-15T16:03:09.123Z,1608
2018-03-15T16:03:53.851Z,1576
2018-03-15T16:04:38.583Z,1560
2018-03-15T16:05:23.339Z,1600
2018-03-15T16:06:08.068Z,1612
2018-03-15T16:06:52.824Z,1588
2018-03-15T16:07:37.528Z,1552
2018-03-15T16:08:22.309Z,1524
2018-03-15T16:09:07.016Z,1548
2018-03-15T16:09:51.720Z,1588
2018-03-15T16:10:36.427Z,1596
2018-03-15T16:11:21.137Z,1564
2018-03-15T16:12:05.866Z,1556
2018-03-15T16:12:50.576Z,1552
2018-03-15T16:13:35.286Z,1532
2018-03-15T16:14:20.012Z,1552
2018-03-15T16:15:04.726Z,1604
2018-03-15T16:15:49.466Z,1696
2018-03-15T16:16:34.162Z,1796
2018-03-15T16:17:18.869Z,1888
2018-03-15T16:18:03.601Z,1912
2018-03-15T16:18:48.349Z,1848
2018-03-15T16:19:33.027Z,1788
2018-03-15T16:20:17.741Z,1752
2018-03-15T16:21:02.473Z,1704
2018-03-15T16:21:47.225Z,1676
2018-03-15T16:22:31.931Z,1644
2018-03-15T16:23:16.640Z,1592
2018-03-15T16:24:01.350Z,1520
2018-03-15T16:24:46.084Z,1464
2018-03-15T16:25:30.809Z,1384
2018-03-15T16:26:15.514Z,1320
2018-03-15T16:27:00.274Z,1252
2018-03-15T16:27:44.950Z,1180
2018-03-15T16:28:29.658Z,1120
2018-03-15T16:29:14.369Z,1064
2018-03-15T16:29:59.091Z,988
2018-03-15T16:30:43.797Z,904
2018-03-15T16:31:28.507Z,844
2018-03-15T16:32:13.253Z,792
2018-03-15T16:32:57.960Z,748
2018-03-15T16:33:42.671Z,712